createdAt,value
2018-09-06T00:00:33.904Z,16.84
2018-09-06T00:03:03.581Z,16.85
2018-09-06T00:05:33.286Z,16.88
2018-09-06T00:08:02.896Z,16.84
2018-09-06T00:10:32.979Z,16.90
2018-09-06T00:13:02.507Z,16.86
2018-09-06T00:15:31.898Z,16.89
2018-09-06T00:18:01.689Z,16.82
2018-09-06T00:20:31.258Z,16.79
2018-09-06T00:23:00.619Z,16.76
2018-09-06T00:25:30.391Z,16.82
2018-09-06T00:27:59.768Z,16.75
2018-09-06T00:30:29.357Z,16.81
2018-09-06T00:32:59.055Z,16.73
2018-09-06T00:35:28.690Z,16.78
2018-09-06T00:37:58.265Z,16.76
2018-09-06T00:40:27.691Z,16.75
2018-09-06T00:42:57.100Z,16.65
2018-09-06T00:45:26.632Z,16.75
2018-09-06T00:47:56.441Z,16.72
2018-09-06T00:50:26.037Z,16.72
2018-09-06T00:52:55.399Z,16.63
2018-09-06T00:55:25.689Z,16.61
2018-09-06T00:57:55.173Z,16.66
2018-09-06T01:00:25.083Z,16.70
2018-09-06T01:02:55.049Z,16.60
2018-09-06T01:05:24.491Z,16.55
2018-09-06T01:07:54.022Z,16.63
2018-09-06T01:10:23.766Z,16.56
2018-09-06T01:12:53.457Z,16.43
2018-09-06T01:15:22.991Z,16.46
2018-09-06T01:17:52.872Z,16.53
2018-09-06T01:20:22.465Z,16.55
2018-09-06T01:22:52.187Z,16.58
2018-09-06T01:25:22.019Z,16.59
2018-09-06T01:27:51.456Z,16.52
2018-09-06T01:30:21.244Z,16.47
2018-09-06T01:32:50.750Z,16.45
2018-09-06T01:35:20.242Z,16.47
2018-09-06T01:37:49.843Z,16.35
2018-09-06T01:40:19.634Z,16.48
2018-09-06T01:42:55.587Z,16.44
2018-09-06T01:45:26.151Z,16.38
2018-09-06T01:47:55.514Z,16.37
2018-09-06T01:50:24.797Z,16.31
2018-09-06T01:52:54.507Z,16.35
2018-09-06T01:55:24.166Z,16.37
2018-09-06T01:57:53.568Z,16.34
2018-09-06T02:00:23.251Z,16.37
2018-09-06T02:02:52.642Z,16.35
2018-09-06T02:05:27.360Z,16.37
2018-09-06T02:07:56.882Z,16.32
2018-09-06T02:10:26.517Z,16.31
2018-09-06T02:12:56.072Z,16.27
2018-09-06T02:15:25.611Z,16.43
2018-09-06T02:17:55.187Z,16.34
2018-09-06T02:20:24.621Z,16.31
2018-09-06T02:22:54.195Z,16.34
2018-09-06T02:25:24.116Z,16.23
2018-09-06T02:27:54.058Z,16.20
2018-09-06T02:30:23.853Z,16.22
2018-09-06T02:32:53.411Z,16.19
2018-09-06T02:35:23.447Z,16.19
2018-09-06T02:37:53.197Z,16.21
2018-09-06T02:40:27.927Z,16.21
2018-09-06T02:42:57.450Z,16.22
2018-09-06T02:45:27.007Z,16.34
2018-09-06T02:47:57.670Z,16.33
2018-09-06T02:50:32.311Z,16.29
2018-09-06T02:53:01.884Z,16.25
2018-09-06T02:55:31.737Z,16.34
2018-09-06T02:58:01.861Z,16.32
2018-09-06T03:00:33.551Z,16.35
2018-09-06T03:03:02.876Z,16.27
2018-09-06T03:05:32.521Z,16.28
2018-09-06T03:08:02.741Z,16.27
2018-09-06T03:10:49.702Z,16.37
2018-09-06T03:13:19.730Z,16.34
2018-09-06T03:15:49.212Z,16.41
2018-09-06T03:18:19.100Z,16.28
2018-09-06T03:20:48.750Z,16.33
2018-09-06T03:23:18.513Z,16.42
2018-09-06T03:25:48.253Z,16.43
2018-09-06T03:28:18.070Z,16.40
2018-09-06T03:30:47.866Z,16.36
2018-09-06T03:33:17.582Z,16.31
2018-09-06T03:35:53.502Z,16.37
2018-09-06T03:38:23.052Z,16.32
2018-09-06T03:40:52.680Z,16.39
2018-09-06T03:43:22.364Z,16.25
2018-09-06T03:45:51.971Z,16.39
2018-09-06T03:48:21.510Z,16.42
2018-09-06T03:50:51.724Z,16.33
2018-09-06T03:53:21.458Z,16.31
2018-09-06T03:55:51.011Z,16.27
2018-09-06T03:58:21.670Z,16.34
2018-09-06T04:00:51.374Z,16.30
2018-09-06T04:03:21.100Z,16.24
2018-09-06T04:05:50.973Z,16.17
2018-09-06T04:08:20.345Z,16.20
2018-09-06T04:10:49.905Z,16.12
2018-09-06T04:13:19.696Z,16.06
2018-09-06T04:15:49.728Z,16.17
2018-09-06T04:18:19.538Z,16.14
2018-09-06T04:20:49.593Z,16.14
2018-09-06T04:23:19.165Z,16.10
2018-09-06T04:25:48.847Z,16.08
2018-09-06T04:28:18.611Z,16.13
2018-09-06T04:30:48.080Z,16.16
2018-09-06T04:33:17.821Z,16.20
2018-09-06T04:35:48.160Z,16.27
2018-09-06T04:38:18.367Z,16.17
2018-09-06T04:40:48.006Z,16.26
2018-09-06T04:43:17.515Z,16.32
2018-09-06T04:45:46.996Z,16.30
2018-09-06T04:48:16.700Z,16.38
2018-09-06T04:50:46.404Z,16.43
2018-09-06T04:53:16.007Z,16.43
2018-09-06T04:55:45.531Z,16.46
2018-09-06T04:58:15.184Z,16.43
2018-09-06T05:00:44.790Z,16.48
2018-09-06T05:03:14.238Z,16.46
2018-09-06T05:05:44.247Z,16.51
2018-09-06T05:08:14.547Z,16.58
2018-09-06T05:10:44.487Z,16.51
2018-09-06T05:13:14.565Z,16.58
2018-09-06T05:15:44.635Z,16.62
2018-09-06T05:18:14.278Z,16.60
2018-09-06T05:20:44.508Z,16.62
2018-09-06T05:23:14.183Z,16.63
2018-09-06T05:25:43.986Z,16.57
2018-09-06T05:28:13.786Z,16.59
2018-09-06T05:30:43.468Z,16.56
2018-09-06T05:33:12.954Z,16.67
2018-09-06T05:35:42.608Z,16.71
2018-09-06T05:38:12.682Z,16.75
2018-09-06T05:40:42.038Z,16.85
2018-09-06T05:43:12.139Z,16.75
2018-09-06T05:45:41.457Z,16.74
2018-09-06T05:48:10.874Z,16.82
2018-09-06T05:50:41.183Z,16.87
2018-09-06T05:53:10.803Z,16.91
2018-09-06T05:55:40.581Z,16.95
2018-09-06T05:58:10.919Z,17.00
2018-09-06T06:00:44.364Z,17.07
2018-09-06T06:03:14.173Z,17.05
2018-09-06T06:05:43.860Z,17.05
2018-09-06T06:08:24.826Z,17.08
2018-09-06T06:10:54.319Z,17.05
2018-09-06T06:13:23.703Z,17.17
2018-09-06T06:15:53.479Z,17.20
2018-09-06T06:18:23.221Z,17.20
2018-09-06T06:20:52.634Z,17.29
2018-09-06T06:23:23.329Z,17.33
2018-09-06T06:25:52.959Z,17.42
2018-09-06T06:28:22.320Z,17.47
2018-09-06T06:30:52.298Z,17.58
2018-09-06T06:33:22.035Z,17.88
2018-09-06T06:35:51.467Z,17.80
2018-09-06T06:38:21.366Z,17.88
2018-09-06T06:40:50.981Z,17.93
2018-09-06T06:43:20.891Z,18.11
2018-09-06T06:45:50.426Z,18.16
2018-09-06T06:48:19.930Z,18.16
2018-09-06T06:50:49.618Z,18.23
2018-09-06T06:53:19.470Z,18.16
2018-09-06T06:55:48.837Z,18.31
2018-09-06T06:58:18.335Z,18.36
2018-09-06T07:00:48.285Z,18.35
2018-09-06T07:03:18.177Z,18.41
2018-09-06T07:05:47.618Z,18.30
2018-09-06T07:08:17.522Z,18.37
2018-09-06T07:10:47.250Z,18.44
2018-09-06T07:13:16.718Z,18.53
2018-09-06T07:15:46.510Z,18.60
2018-09-06T07:18:16.051Z,18.59
2018-09-06T07:20:45.939Z,18.46
2018-09-06T07:23:16.067Z,18.44
2018-09-06T07:25:46.638Z,18.53
2018-09-06T07:28:16.368Z,18.48
2018-09-06T07:30:46.317Z,18.60
2018-09-06T07:33:15.606Z,18.64
2018-09-06T07:35:45.018Z,18.56
2018-09-06T07:38:15.057Z,18.46
2018-09-06T07:40:44.753Z,18.46
2018-09-06T07:43:14.557Z,18.55
2018-09-06T07:45:44.148Z,18.82
2018-09-06T07:48:13.703Z,19.01
2018-09-06T07:50:43.171Z,18.97
2018-09-06T07:53:12.884Z,18.83
2018-09-06T07:55:42.412Z,18.86
2018-09-06T07:58:12.051Z,18.72
2018-09-06T08:00:41.975Z,18.96
2018-09-06T08:03:12.452Z,19.19
2018-09-06T08:05:42.479Z,19.41
2018-09-06T08:08:12.210Z,19.54
2018-09-06T08:10:41.690Z,19.58
2018-09-06T08:13:11.102Z,19.71
2018-09-06T08:15:40.903Z,19.91
2018-09-06T08:18:10.516Z,19.87
2018-09-06T08:20:40.193Z,19.80
2018-09-06T08:23:09.897Z,20.00
2018-09-06T08:25:39.689Z,20.19
2018-09-06T08:28:09.409Z,20.25
2018-09-06T08:30:39.442Z,20.36
2018-09-06T08:33:08.882Z,20.20
2018-09-06T08:35:38.698Z,20.26
2018-09-06T08:38:09.053Z,20.11
2018-09-06T08:40:38.769Z,20.12
2018-09-06T08:43:08.543Z,20.14
2018-09-06T08:45:38.387Z,20.31
2018-09-06T08:48:08.187Z,20.32
2018-09-06T08:50:37.705Z,20.67
2018-09-06T08:53:07.723Z,20.66
2018-09-06T08:55:37.714Z,20.58
2018-09-06T08:58:07.413Z,20.53
2018-09-06T09:00:40.537Z,20.67
2018-09-06T09:03:10.992Z,20.77
2018-09-06T09:05:40.458Z,20.70
2018-09-06T09:08:10.297Z,20.67
2018-09-06T09:10:39.969Z,20.67
2018-09-06T09:13:10.247Z,20.87
2018-09-06T09:15:40.204Z,20.80
2018-09-06T09:18:09.625Z,20.79
2018-09-06T09:20:39.145Z,20.92
2018-09-06T09:23:09.176Z,21.05
2018-09-06T09:25:38.869Z,21.51
2018-09-06T09:28:08.345Z,21.83
2018-09-06T09:30:38.450Z,22.00
2018-09-06T09:33:07.782Z,22.27
2018-09-06T09:35:37.501Z,22.05
2018-09-06T09:38:07.229Z,21.82
2018-09-06T09:40:37.125Z,21.55
2018-09-06T09:43:07.025Z,21.45
2018-09-06T09:45:36.967Z,21.79
2018-09-06T09:48:06.583Z,22.20
2018-09-06T09:53:06.290Z,22.81
2018-09-06T09:55:35.702Z,23.23
2018-09-06T09:58:05.357Z,23.60
2018-09-06T10:00:37.496Z,23.87
2018-09-06T10:03:12.040Z,23.41
2018-09-06T10:05:55.346Z,22.82
2018-09-06T10:08:30.058Z,22.54
2018-09-06T10:10:59.898Z,22.87
2018-09-06T10:13:29.275Z,23.08
2018-09-06T10:15:58.728Z,23.09
2018-09-06T10:18:28.509Z,22.83
2018-09-06T10:21:00.638Z,22.77
2018-09-06T10:23:30.671Z,22.99
2018-09-06T10:26:00.397Z,22.79
2018-09-06T10:28:29.985Z,22.71
2018-09-06T10:31:00.854Z,22.25
2018-09-06T10:33:30.360Z,22.68
2018-09-06T10:36:00.150Z,23.09
2018-09-06T10:38:30.229Z,23.18
2018-09-06T10:40:59.981Z,23.53
2018-09-06T10:43:29.466Z,23.78
2018-09-06T10:45:59.185Z,23.79
2018-09-06T10:48:28.894Z,23.54
2018-09-06T10:50:58.413Z,23.35
2018-09-06T10:53:28.347Z,22.97
2018-09-06T10:55:57.759Z,23.42
2018-09-06T10:58:27.483Z,23.90
2018-09-06T11:01:02.403Z,24.45
2018-09-06T11:03:32.281Z,24.06
2018-09-06T11:06:02.192Z,23.69
2018-09-06T11:08:32.453Z,24.20
2018-09-06T11:11:02.441Z,24.06
2018-09-06T11:13:32.314Z,23.86
2018-09-06T11:16:02.287Z,23.72
2018-09-06T11:18:32.382Z,23.59
2018-09-06T11:21:02.465Z,23.40
2018-09-06T11:23:32.262Z,23.33
2018-09-06T11:26:02.252Z,23.21
2018-09-06T11:28:31.795Z,23.30
2018-09-06T11:31:01.773Z,23.27
2018-09-06T11:33:31.430Z,23.27
2018-09-06T11:36:01.025Z,23.37
2018-09-06T11:38:31.337Z,23.99
2018-09-06T11:41:00.706Z,24.52
2018-09-06T11:43:30.433Z,24.79
2018-09-06T11:46:00.164Z,24.58
2018-09-06T11:48:30.053Z,24.33
2018-09-06T11:50:59.464Z,24.05
2018-09-06T11:53:29.394Z,23.62
2018-09-06T11:55:58.814Z,23.42
2018-09-06T11:58:28.597Z,23.32
2018-09-06T12:00:58.371Z,23.22
2018-09-06T12:03:27.974Z,23.10
2018-09-06T12:05:57.402Z,23.00
2018-09-06T12:08:27.459Z,22.95
2018-09-06T12:10:56.851Z,22.77
2018-09-06T12:13:26.755Z,22.66
2018-09-06T12:15:56.421Z,22.57
2018-09-06T12:18:26.177Z,22.55
2018-09-06T12:20:55.574Z,22.45
2018-09-06T12:23:25.346Z,22.40
2018-09-06T12:25:54.835Z,22.34
2018-09-06T12:28:24.577Z,22.36
2018-09-06T12:30:54.451Z,22.38
2018-09-06T12:33:24.727Z,22.37
2018-09-06T12:35:54.556Z,22.45
2018-09-06T12:38:24.598Z,22.10
2018-09-06T12:40:54.329Z,22.38
2018-09-06T12:43:23.905Z,22.32
2018-09-06T12:45:53.859Z,22.44
2018-09-06T12:48:23.330Z,22.39
2018-09-06T12:50:53.102Z,22.34
2018-09-06T12:53:23.073Z,22.38
2018-09-06T12:55:52.860Z,22.33
2018-09-06T12:58:22.280Z,22.27
2018-09-06T13:00:53.293Z,22.38
2018-09-06T13:03:23.318Z,22.40
2018-09-06T13:05:53.143Z,22.36
2018-09-06T13:08:23.250Z,22.23
2018-09-06T13:10:52.974Z,22.06
2018-09-06T13:13:22.594Z,21.91
2018-09-06T13:15:52.526Z,21.95
2018-09-06T13:18:22.272Z,21.95
2018-09-06T13:20:51.913Z,21.92
2018-09-06T13:23:21.807Z,21.87
2018-09-06T13:25:51.506Z,21.89
2018-09-06T13:28:21.626Z,21.77
2018-09-06T13:30:51.322Z,21.59
2018-09-06T13:33:20.929Z,21.58
2018-09-06T13:35:50.475Z,21.54
2018-09-06T13:38:20.612Z,21.15
2018-09-06T13:40:50.014Z,21.12
2018-09-06T13:43:19.936Z,21.15
2018-09-06T13:45:49.573Z,21.10
2018-09-06T13:48:19.149Z,21.17
2018-09-06T13:50:48.970Z,21.30
2018-09-06T13:53:19.153Z,21.47
2018-09-06T13:55:48.679Z,21.58
2018-09-06T13:58:18.615Z,21.68
2018-09-06T14:00:48.769Z,21.86
2018-09-06T14:03:18.239Z,22.07
2018-09-06T14:05:48.120Z,22.48
2018-09-06T14:08:17.852Z,23.05
2018-09-06T14:10:47.568Z,23.69
2018-09-06T14:13:17.459Z,24.09
2018-09-06T14:15:47.218Z,24.17
2018-09-06T14:18:16.795Z,24.25
2018-09-06T14:20:46.756Z,24.42
2018-09-06T14:23:16.983Z,24.79
2018-09-06T14:25:46.443Z,24.74
2018-09-06T14:28:16.179Z,24.58
2018-09-06T14:30:45.913Z,24.72
2018-09-06T14:33:15.365Z,24.74
2018-09-06T14:35:45.002Z,24.37
2018-09-06T14:38:14.709Z,23.54
2018-09-06T14:40:44.259Z,23.52
2018-09-06T14:43:13.655Z,23.47
2018-09-06T14:45:43.099Z,23.40
2018-09-06T14:48:12.642Z,23.35
2018-09-06T14:50:42.136Z,23.37
2018-09-06T14:53:12.178Z,23.19
2018-09-06T14:55:41.904Z,23.19
2018-09-06T14:58:11.465Z,23.02
2018-09-06T15:00:41.130Z,22.96
2018-09-06T15:03:11.043Z,23.05
2018-09-06T15:05:40.728Z,22.98
2018-09-06T15:08:10.379Z,22.97
2018-09-06T15:10:39.718Z,23.10
2018-09-06T15:13:09.449Z,23.08
2018-09-06T15:15:39.420Z,22.76
2018-09-06T15:18:08.726Z,23.40
2018-09-06T15:20:38.469Z,23.83
2018-09-06T15:23:08.308Z,23.80
2018-09-06T15:25:38.036Z,24.02
2018-09-06T15:28:07.858Z,24.42
2018-09-06T15:30:37.906Z,24.11
2018-09-06T15:33:07.625Z,24.21
2018-09-06T15:35:37.561Z,24.45
2018-09-06T15:38:07.917Z,24.70
2018-09-06T15:40:37.621Z,24.64
2018-09-06T15:43:07.186Z,24.57
2018-09-06T15:45:36.967Z,24.75
2018-09-06T15:48:06.909Z,24.65
2018-09-06T15:50:36.863Z,24.65
2018-09-06T15:53:06.657Z,24.68
2018-09-06T15:55:36.139Z,24.68
2018-09-06T15:58:05.764Z,24.64
2018-09-06T16:00:35.903Z,24.82
2018-09-06T16:03:05.872Z,24.57
2018-09-06T16:05:35.272Z,24.58
2018-09-06T16:08:05.016Z,24.57
2018-09-06T16:10:35.080Z,24.32
2018-09-06T16:13:04.533Z,24.13
2018-09-06T16:15:34.631Z,23.72
2018-09-06T16:18:04.321Z,23.49
2018-09-06T16:20:33.778Z,23.48
2018-09-06T16:23:03.469Z,23.19
2018-09-06T16:25:33.145Z,23.07
2018-09-06T16:28:02.694Z,22.82
2018-09-06T16:30:32.633Z,22.87
2018-09-06T16:33:02.020Z,22.71
2018-09-06T16:35:31.682Z,22.54
2018-09-06T16:38:01.439Z,22.57
2018-09-06T16:40:31.153Z,22.43
2018-09-06T16:43:00.768Z,22.50
2018-09-06T16:45:30.182Z,22.39
2018-09-06T16:48:01.405Z,22.28
2018-09-06T16:50:31.344Z,22.18
2018-09-06T16:53:00.822Z,22.13
2018-09-06T16:55:30.326Z,22.00
2018-09-06T16:57:59.822Z,21.88
2018-09-06T17:00:29.247Z,21.82
2018-09-06T17:02:58.875Z,21.82
2018-09-06T17:05:28.551Z,21.78
2018-09-06T17:07:57.965Z,21.76
2018-09-06T17:10:27.416Z,21.76
2018-09-06T17:12:57.397Z,21.72
2018-09-06T17:15:27.113Z,21.76
2018-09-06T17:17:59.371Z,21.70
2018-09-06T17:20:29.004Z,21.74
2018-09-06T17:22:58.412Z,21.60
2018-09-06T17:25:28.471Z,21.58
2018-09-06T17:27:57.833Z,21.56
2018-09-06T17:30:27.525Z,21.45
2018-09-06T17:32:57.460Z,21.38
2018-09-06T17:35:27.173Z,21.34
2018-09-06T17:37:56.629Z,21.30
2018-09-06T17:40:26.286Z,21.25
2018-09-06T17:42:55.798Z,21.22
2018-09-06T17:45:25.471Z,21.18
2018-09-06T17:47:55.282Z,21.21
2018-09-06T17:50:24.898Z,21.11
2018-09-06T17:52:54.509Z,21.14
2018-09-06T17:55:24.305Z,21.16
2018-09-06T17:57:54.761Z,21.07
2018-09-06T18:00:24.310Z,20.99
2018-09-06T18:02:54.164Z,20.90
2018-09-06T18:05:23.726Z,20.76
2018-09-06T18:07:53.547Z,20.82
2018-09-06T18:10:23.297Z,20.74
2018-09-06T18:12:53.000Z,20.74
2018-09-06T18:15:22.633Z,20.76
2018-09-06T18:17:52.398Z,20.71
2018-09-06T18:20:21.735Z,20.72
2018-09-06T18:22:51.430Z,20.77
2018-09-06T18:25:21.765Z,20.66
2018-09-06T18:27:51.478Z,20.63
2018-09-06T18:30:21.030Z,20.66
2018-09-06T18:32:50.743Z,20.67
2018-09-06T18:35:20.312Z,20.69
2018-09-06T18:37:50.218Z,20.65
2018-09-06T18:40:19.965Z,20.65
2018-09-06T18:42:49.650Z,20.58
2018-09-06T18:45:19.728Z,20.51
2018-09-06T18:47:50.010Z,20.37
2018-09-06T18:50:19.516Z,20.32
2018-09-06T18:52:49.301Z,20.28
2018-09-06T18:55:19.045Z,20.24
2018-09-06T18:57:48.621Z,20.08
2018-09-06T19:00:18.405Z,20.09
2018-09-06T19:02:48.638Z,20.12
2018-09-06T19:05:18.203Z,20.19
2018-09-06T19:07:47.765Z,20.16
2018-09-06T19:10:17.168Z,20.10
2018-09-06T19:12:46.957Z,20.08
2018-09-06T19:15:16.794Z,20.04
2018-09-06T19:17:46.494Z,20.06
2018-09-06T19:20:15.876Z,20.06
2018-09-06T19:22:45.535Z,20.09
2018-09-06T19:25:15.467Z,20.07
2018-09-06T19:27:45.337Z,20.00
2018-09-06T19:30:15.372Z,20.04
2018-09-06T19:32:45.515Z,20.00
2018-09-06T19:35:14.953Z,19.98
2018-09-06T19:37:44.610Z,19.97
2018-09-06T19:40:14.365Z,19.89
2018-09-06T19:42:43.929Z,19.88
2018-09-06T19:45:13.516Z,19.89
2018-09-06T19:47:43.277Z,19.85
2018-09-06T19:50:12.716Z,19.72
2018-09-06T19:52:42.286Z,19.68
2018-09-06T19:55:12.579Z,19.76
2018-09-06T19:57:42.483Z,19.67
2018-09-06T20:00:12.123Z,19.69
2018-09-06T20:02:42.320Z,19.56
2018-09-06T20:05:12.142Z,19.59
2018-09-06T20:07:41.749Z,19.62
2018-09-06T20:10:11.405Z,19.59
2018-09-06T20:12:40.990Z,19.62
2018-09-06T20:15:10.604Z,19.56
2018-09-06T20:17:40.757Z,19.55
2018-09-06T20:20:10.294Z,19.54
2018-09-06T20:22:39.899Z,19.55
2018-09-06T20:25:09.767Z,19.51
2018-09-06T20:27:39.303Z,19.49
2018-09-06T20:30:08.744Z,19.47
2018-09-06T20:32:38.661Z,19.43
2018-09-06T20:35:08.576Z,19.50
2018-09-06T20:37:37.858Z,19.44
2018-09-06T20:40:08.004Z,19.43
2018-09-06T20:42:43.229Z,19.36
2018-09-06T20:45:13.038Z,19.44
2018-09-06T20:47:42.784Z,19.29
2018-09-06T21:07:34.977Z,19.04
2018-09-06T21:10:05.132Z,19.10
2018-09-06T21:12:34.657Z,19.03
2018-09-06T21:15:04.584Z,18.98
2018-09-06T21:17:34.091Z,19.05
2018-09-06T21:20:03.686Z,19.04
2018-09-06T21:22:33.585Z,18.99
2018-09-06T21:25:03.264Z,18.99
2018-09-06T21:27:33.843Z,18.92
2018-09-06T21:30:07.521Z,18.96
2018-09-06T21:32:37.148Z,18.90
2018-09-06T21:35:06.814Z,18.89
2018-09-06T21:37:37.094Z,18.79
2018-09-06T21:57:28.253Z,18.34
2018-09-06T21:59:58.009Z,18.32
2018-09-06T22:02:33.716Z,18.21
2018-09-06T22:05:03.823Z,18.21
2018-09-06T22:07:33.588Z,18.22
2018-09-06T22:10:03.395Z,18.10
2018-09-06T22:12:33.372Z,18.07
2018-09-06T22:15:03.161Z,18.11
2018-09-06T22:17:32.645Z,17.88
2018-09-06T22:20:02.507Z,17.93
2018-09-06T22:22:31.862Z,17.92
2018-09-06T22:25:01.604Z,17.83
2018-09-06T22:44:53.921Z,17.23
2018-09-06T22:47:23.400Z,17.16
2018-09-06T22:49:53.348Z,17.02
2018-09-06T22:52:23.504Z,17.07
2018-09-06T23:20:56.709Z,16.94
2018-09-06T23:23:26.462Z,16.80
2018-09-06T23:25:55.917Z,16.84
2018-09-06T23:28:25.792Z,16.84
2018-09-06T23:30:56.013Z,16.81
2018-09-06T23:33:25.568Z,16.54
2018-09-06T23:35:55.567Z,16.61
2018-09-06T23:38:26.361Z,16.52
2018-09-06T23:40:58.434Z,16.56
2018-09-06T23:43:28.490Z,16.63
2018-09-06T23:46:02.507Z,16.50
2018-09-06T23:48:32.408Z,16.49
2018-09-06T23:51:02.657Z,16.67
2018-09-06T23:53:34.906Z,16.55
2018-09-06T23:56:07.314Z,16.43
2018-09-06T23:58:39.248Z,16.55
